Time,TemperatureF,DewpointF,PressureIn,WindDirection,WindDirectionDegrees,WindSpeedMPH,WindSpeedGustMPH,Humidity,HourlyPrecipIn,Conditions,Clouds,dailyrainin,SoftwareType,DateUTC
2014-09-22 00:13:00,52.8,49.0,30.14,West,271,0.0,-999.0,88,-99.99,,,0.00,weatherlink.com 1.10,2014-09-22 05:13:00,
2014-09-22 00:28:00,52.2,49.0,30.14,West,271,0.0,-999.0,89,-99.99,,,0.00,weatherlink.com 1.10,2014-09-22 05:28:00,
2014-09-22 00:43:00,51.9,49.0,30.14,West,271,0.0,-999.0,90,-99.99,,,0.00,weatherlink.com 1.10,2014-09-22 05:43:00,
2014-09-22 00:58:00,51.4,49.0,30.14,West,271,0.0,-999.0,90,-99.99,,,0.00,weatherlink.com 1.10,2014-09-22 05:58:00,
2014-09-22 01:13:00,51.0,49.0,30.14,West,271,0.0,-999.0,91,-99.99,,,0.00,weatherlink.com 1.10,2014-09-22 06:13:00,
2014-09-22 01:28:00,50.7,48.0,30.14,West,271,0.0,-999.0,91,-99.99,,,0.00,weatherlink.com 1.10,2014-09-22 06:28:00,
2014-09-22 01:43:00,50.7,49.0,30.14,West,271,0.0,-999.0,92,-99.99,,,0.00,weatherlink.com 1.10,2014-09-22 06:43:00,
2014-09-22 01:58:00,50.5,48.0,30.14,West,271,0.0,-999.0,92,-99.99,,,0.00,weatherlink.com 1.10,2014-09-22 06:58:00,
2014-09-22 02:13:00,49.9,48.0,30.14,West,271,0.0,-999.0,92,-99.99,,,0.00,weatherlink.com 1.10,2014-09-22 07:13:00,
2014-09-22 02:28:00,50.4,49.0,30.13,West,271,0.0,-999.0,93,-99.99,,,0.00,weatherlink.com 1.10,2014-09-22 07:28:00,
2014-09-22 02:43:00,49.5,48.0,30.12,West,271,0.0,-999.0,93,-99.99,,,0.00,weatherlink.com 1.10,2014-09-22 07:43:00,
2014-09-22 02:58:00,49.2,47.0,30.12,West,271,1.0,-999.0,93,-99.99,,,0.00,weatherlink.com 1.10,2014-09-22 07:58:00,
2014-09-22 03:13:00,49.2,47.0,30.12,West,271,0.0,-999.0,93,-99.99,,,0.00,weatherlink.com 1.10,2014-09-22 08:13:00,
2014-09-22 03:28:00,49.1,48.0,30.12,West,271,0.0,-999.0,94,-99.99,,,0.00,weatherlink.com 1.10,2014-09-22 08:28:00,
2014-09-22 03:43:00,48.9,47.0,30.12,West,271,0.0,-999.0,94,-99.99,,,0.00,weatherlink.com 1.10,2014-09-22 08:43:00,
2014-09-22 03:58:00,49.4,48.0,30.13,West,271,0.0,-999.0,95,-99.99,,,0.00,weatherlink.com 1.10,2014-09-22 08:58:00,
2014-09-22 04:13:00,49.5,48.0,30.13,West,271,0.0,-999.0,95,-99.99,,,0.00,weatherlink.com 1.10,2014-09-22 09:13:00,
2014-09-22 04:28:00,49.2,48.0,30.13,West,271,0.0,-999.0,95,-99.99,,,0.00,weatherlink.com 1.10,2014-09-22 09:28:00,
2014-09-22 04:43:00,49.1,48.0,30.13,West,271,0.0,-999.0,95,-99.99,,,0.00,weatherlink.com 1.10,2014-09-22 09:43:00,
2014-09-22 04:58:00,49.1,48.0,30.13,West,271,0.0,-999.0,95,-99.99,,,0.00,weatherlink.com 1.10,2014-09-22 09:58:00,
2014-09-22 05:13:00,48.9,48.0,30.14,West,271,0.0,-999.0,95,-99.99,,,0.00,weatherlink.com 1.10,2014-09-22 10:13:00,
2014-09-22 05:28:00,48.6,47.0,30.14,West,271,0.0,-999.0,95,-99.99,,,0.00,weatherlink.com 1.10,2014-09-22 10:28:00,
2014-09-22 05:43:00,48.0,47.0,30.14,West,271,0.0,-999.0,95,-99.99,,,0.00,weatherlink.com 1.10,2014-09-22 10:43:00,
2014-09-22 05:58:00,48.0,47.0,30.15,West,271,0.0,-999.0,96,-99.99,,,0.00,weatherlink.com 1.10,2014-09-22 10:58:00,
2014-09-22 06:13:00,47.7,47.0,30.15,West,271,0.0,-999.0,96,-99.99,,,0.00,weatherlink.com 1.10,2014-09-22 11:13:00,
2014-09-22 06:28:00,47.6,47.0,30.16,West,271,0.0,-999.0,96,-99.99,,,0.00,weatherlink.com 1.10,2014-09-22 11:28:00,
2014-09-22 06:43:00,47.4,46.0,30.16,West,271,0.0,-999.0,96,-99.99,,,0.00,weatherlink.com 1.10,2014-09-22 11:43:00,
2014-09-22 06:58:00,47.3,46.0,30.17,West,271,0.0,-999.0,96,-99.99,,,0.00,weatherlink.com 1.10,2014-09-22 11:58:00,
2014-09-22 07:13:00,47.1,46.0,30.17,West,271,0.0,-999.0,96,-99.99,,,0.00,weatherlink.com 1.10,2014-09-22 12:13:00,
2014-09-22 07:28:00,47.3,46.0,30.18,West,271,0.0,-999.0,96,-99.99,,,0.00,weatherlink.com 1.10,2014-09-22 12:28:00,
2014-09-22 07:43:00,47.7,47.0,30.18,West,264,1.0,-999.0,96,-99.99,,,0.00,weatherlink.com 1.10,2014-09-22 12:43:00,
2014-09-22 07:59:00,48.3,47.0,30.18,West,261,0.0,-999.0,96,-99.99,,,0.00,weatherlink.com 1.10,2014-09-22 12:59:00,
2014-09-22 08:14:00,49.2,48.0,30.18,SSW,198,1.0,-999.0,96,-99.99,,,0.00,weatherlink.com 1.10,2014-09-22 13:14:00,
2014-09-22 08:29:00,49.8,49.0,30.18,SSW,205,0.0,-999.0,95,-99.99,,,0.00,weatherlink.com 1.10,2014-09-22 13:29:00,
2014-09-22 08:44:00,50.7,49.0,30.18,WSW,246,2.0,-999.0,95,-99.99,,,0.00,weatherlink.com 1.10,2014-09-22 13:44:00,
2014-09-22 08:59:00,51.6,50.0,30.18,SW,236,0.0,-999.0,93,-99.99,,,0.00,weatherlink.com 1.10,2014-09-22 13:59:00,
2014-09-22 09:14:00,52.9,51.0,30.19,SW,221,0.0,-999.0,92,-99.99,,,0.00,weatherlink.com 1.10,2014-09-22 14:14:00,
2014-09-22 09:29:00,54.2,51.0,30.18,SSW,202,0.0,-999.0,89,-99.99,,,0.00,weatherlink.com 1.10,2014-09-22 14:29:00,
2014-09-22 09:44:00,55.1,51.0,30.18,SW,228,0.0,-999.0,86,-99.99,,,0.00,weatherlink.com 1.10,2014-09-22 14:44:00,
2014-09-22 09:59:00,55.7,51.0,30.18,SSW,197,1.0,-999.0,83,-99.99,,,0.00,weatherlink.com 1.10,2014-09-22 14:59:00,
2014-09-22 10:14:00,56.5,51.0,30.18,South,186,0.0,-999.0,82,-99.99,,,0.00,weatherlink.com 1.10,2014-09-22 15:14:00,
2014-09-22 10:29:00,57.6,52.0,30.18,SSW,210,0.0,-999.0,80,-99.99,,,0.00,weatherlink.com 1.10,2014-09-22 15:29:00,
2014-09-22 10:44:00,59.0,52.0,30.17,SW,233,0.0,-999.0,77,-99.99,,,0.00,weatherlink.com 1.10,2014-09-22 15:44:00,
2014-09-22 10:59:00,60.2,52.0,30.17,South,183,2.0,-999.0,74,-99.99,,,0.00,weatherlink.com 1.10,2014-09-22 15:59:00,
2014-09-22 11:14:00,61.8,53.0,30.16,South,181,0.0,-999.0,74,-99.99,,,0.00,weatherlink.com 1.10,2014-09-22 16:14:00,
2014-09-22 11:29:00,63.1,53.0,30.16,West,264,0.0,-999.0,69,-99.99,,,0.00,weatherlink.com 1.10,2014-09-22 16:29:00,
2014-09-22 11:44:00,63.9,53.0,30.15,SSE,167,0.0,-999.0,68,-99.99,,,0.00,weatherlink.com 1.10,2014-09-22 16:44:00,
2014-09-22 11:59:00,65.0,52.0,30.15,SW,231,5.0,-999.0,64,-99.99,,,0.00,weatherlink.com 1.10,2014-09-22 16:59:00,
2014-09-22 12:14:00,66.1,53.0,30.15,SW,233,0.0,-999.0,62,-99.99,,,0.00,weatherlink.com 1.10,2014-09-22 17:14:00,
2014-09-22 12:29:00,66.4,51.0,30.15,SW,233,0.0,-999.0,59,-99.99,,,0.00,weatherlink.com 1.10,2014-09-22 17:29:00,
2014-09-22 12:44:00,67.1,52.0,30.14,SW,217,0.0,-999.0,59,-99.99,,,0.00,weatherlink.com 1.10,2014-09-22 17:44:00,